Tekirdağ Çorlu Airport

LTBU · 泰基尔达省, 土耳其

罗盘
风向 的 风向 040° Tekirdağ Çorlu Airport 4/22
风: 6 kt, 2 beaufort

6 kt

1 kt
改变
0 ft 1.000 2.000 3.000 4.000 5.000
没有观察到明显的云
METAR LTBU 020650Z 04006KT 6000 NSC 08/07 Q1011

METAR Tekirdağ Çorlu Airport - LTBU/TEQ

Tekirdağ Çorlu Airport是,土耳其中的中型机场。 该机场位于纬度41,13825和经度27,91895。 该机场有一条跑道: 4/22. 本场的ICAO机场代码为LTBU。 该机场的IATA代码为TEQ。 机场在Istanbul FIR中。

该航空气象观测是针对Tekirdağ Çorlu Airport在2024年3月2日 09:50, 当地时间进行的。

机场观察

风向为040°,速度为6 kt。

可见度为6 km。

有没有观察到明显的云。 没有观察到天花板。

温度为8 °C,阵风为4 °C。 露点为7 °C,相对湿度为93%。 海平面上的气压为1011 hPa (QNH)。

白天

今天,太阳从07:40升起,在19:00降落。 这适用于Tekirdağ Çorlu Airport,世界夏令时可能有所不同。 当地时间与世界标准时间之间的时差为+3 小时。 当前,没有夏令时有效。

公司介绍

我们没有关于这个机场的公司信息。

体会

到Vliegles.nl去找飞行课程,跳伞和其他飞行体验。 浏览页面,了解Tekirdağ Çorlu Airport附近所有可用的活动。 你也可以使用搜索功能来寻找你所在地附近的特定飞行课程、跳伞或其他飞行体验。

跑道

Id 标题 侧风 逆风 侧风 %
4/22 049°-229° 6 kt 16 %

逆风成分最大的方向会被突出显示,并用于横风计算。 这并不一定意味着这个方向在使用。

乌云

- NSC 没有观察到明显的云

温度 & 天气

温度 8 °C
露点 7 °C
相对湿度 93%
风寒 4 °C
Kp-index 0 (0-9)

白天

日出
07:40
中午
13:20
日落
19:00 (8:44)

小工具

你想在你的网站上有一个关于Tekirdağ Çorlu Airport的当前航空天气(METAR)的小部件吗?

显示HTML代码
?>